Time;durP1;ratioP1;P1;durP2;ratioP2;P2;SDS_P1;SDS_P2;PMS_P1;PMS_P2;Temp;Humidity;BMP_temperature;BMP_pressure;BME280_temperature;BME280_humidity;BME280_pressure;Samples;Min_cycle;Max_cycle;Signal;HPM_P1;HPM_P2
2021/05/11 00:00:13;;;;;;;1.00;0.60;;;;;19.80;99760.00;;;;2077288;28;20226;-51
2021/05/11 00:01:13;;;;;;;0.87;0.70;;;;;19.80;99757.00;;;;2081426;28;20221;-51
2021/05/11 00:02:13;;;;;;;0.73;0.60;;;;;19.80;99754.00;;;;2081628;28;20483;-51
2021/05/11 00:03:14;;;;;;;1.97;0.80;;;;;19.80;99759.00;;;;2080763;28;20221;-51
2021/05/11 00:04:14;;;;;;;0.90;0.70;;;;;19.80;99754.00;;;;2081608;28;20300;-51
2021/05/11 00:05:15;;;;;;;0.80;0.70;;;;;19.80;99761.00;;;;2077513;28;20271;-50
2021/05/11 00:06:15;;;;;;;0.80;0.73;;;;;19.80;99765.00;;;;2072674;28;20863;-52
2021/05/11 00:07:16;;;;;;;0.80;0.80;;;;;19.80;99770.00;;;;2075708;28;20222;-54
2021/05/11 00:08:16;;;;;;;0.90;0.80;;;;;19.80;99773.00;;;;2076575;28;20214;-52
2021/05/11 00:09:17;;;;;;;0.90;0.70;;;;;19.80;99773.00;;;;2077033;28;20218;-51
2021/05/11 00:10:17;;;;;;;1.20;0.77;;;;;19.80;99768.00;;;;2081569;28;20210;-50
2021/05/11 00:11:17;;;;;;;0.80;0.70;;;;;19.80;99777.00;;;;2078722;28;20209;-51
2021/05/11 00:12:18;;;;;;;0.80;0.80;;;;;19.80;99772.00;;;;2080163;28;20226;-51
2021/05/11 00:13:18;;;;;;;0.80;0.60;;;;;19.80;99767.00;;;;2077028;28;20229;-52
2021/05/11 00:14:18;;;;;;;0.70;0.60;;;;;19.80;99780.00;;;;2076863;28;20570;-51
2021/05/11 00:15:19;;;;;;;0.70;0.57;;;;;19.80;99774.00;;;;2076043;28;20640;-51
2021/05/11 00:16:19;;;;;;;0.93;0.70;;;;;19.80;99773.00;;;;2075775;28;20226;-51
2021/05/11 00:17:19;;;;;;;0.83;0.60;;;;;19.80;99784.00;;;;2077205;28;20229;-50
2021/05/11 00:18:20;;;;;;;0.70;0.67;;;;;19.80;99773.00;;;;2077227;28;20740;-51
2021/05/11 00:19:20;;;;;;;0.70;0.70;;;;;19.80;99771.00;;;;2084825;28;20774;-50
2021/05/11 00:20:21;;;;;;;1.10;0.80;;;;;19.80;99771.00;;;;2085185;28;20844;-51
2021/05/11 00:21:21;;;;;;;0.80;0.70;;;;;19.80;99772.00;;;;2085587;28;20224;-50
2021/05/11 00:22:22;;;;;;;1.30;0.80;;;;;19.80;99784.00;;;;2085379;28;20252;-50
2021/05/11 00:23:22;;;;;;;1.93;0.90;;;;;19.80;99774.00;;;;2085359;28;20226;-51
2021/05/11 00:24:22;;;;;;;0.80;0.67;;;;;19.80;99785.00;;;;2085573;28;20222;-51
2021/05/11 00:25:23;;;;;;;0.70;0.60;;;;;19.80;99784.00;;;;2085505;28;20248;-52
2021/05/11 00:26:23;;;;;;;0.80;0.70;;;;;19.80;99782.00;;;;2085527;28;20962;-50
2021/05/11 00:27:23;;;;;;;0.87;0.60;;;;;19.80;99781.00;;;;2085551;28;20798;-51
2021/05/11 00:28:24;;;;;;;0.80;0.50;;;;;19.80;99782.00;;;;2081441;28;20222;-50
2021/05/11 00:29:24;;;;;;;0.80;0.60;;;;;19.80;99790.00;;;;2076528;28;20222;-51
2021/05/11 00:30:24;;;;;;;0.73;0.67;;;;;19.80;99788.00;;;;2077389;28;20221;-50
2021/05/11 00:31:25;;;;;;;1.00;0.70;;;;;19.80;99788.00;;;;2077305;28;20687;-50
2021/05/11 00:32:25;;;;;;;0.70;0.70;;;;;19.80;99790.00;;;;2076981;28;20218;-50
2021/05/11 00:33:25;;;;;;;0.70;0.60;;;;;19.80;99780.00;;;;2077232;28;20230;-54
2021/05/11 00:34:26;;;;;;;0.80;0.70;;;;;19.80;99784.00;;;;2077217;28;20234;-50
2021/05/11 00:35:26;;;;;;;1.30;0.80;;;;;19.80;99780.00;;;;2077108;28;20730;-50
2021/05/11 00:36:26;;;;;;;0.60;0.50;;;;;19.80;99780.00;;;;2077226;28;20682;-50
2021/05/11 00:37:27;;;;;;;0.70;0.50;;;;;19.80;99784.00;;;;2076978;28;20284;-50
2021/05/11 00:38:27;;;;;;;1.27;0.90;;;;;19.80;99780.00;;;;2076735;28;20225;-50
2021/05/11 00:39:27;;;;;;;0.80;0.60;;;;;19.80;99785.00;;;;2078446;28;20253;-50
2021/05/11 00:40:28;;;;;;;0.87;0.70;;;;;19.80;99782.00;;;;2079841;28;20276;-50
2021/05/11 00:41:28;;;;;;;0.80;0.60;;;;;19.80;99776.00;;;;2078881;28;20210;-50
2021/05/11 00:42:28;;;;;;;0.90;0.70;;;;;19.80;99780.00;;;;2076813;28;20218;-50
2021/05/11 00:43:29;;;;;;;0.70;0.70;;;;;19.80;99779.00;;;;2073940;28;20248;-51
2021/05/11 00:44:29;;;;;;;0.83;0.70;;;;;19.80;99778.00;;;;2079036;28;20706;-51
2021/05/11 00:45:29;;;;;;;0.70;0.50;;;;;19.80;99776.00;;;;2079789;28;20300;-51
2021/05/11 00:46:31;;;;;;;1.13;0.70;;;;;19.80;99781.00;;;;2079608;28;20222;-50
2021/05/11 00:47:31;;;;;;;1.02;0.75;;;;;19.80;99784.00;;;;2074024;28;20233;-51
2021/05/11 00:48:32;;;;;;;0.80;0.70;;;;;19.80;99783.00;;;;2071580;28;20607;-50
2021/05/11 00:49:34;;;;;;;0.93;0.80;;;;;19.80;99788.00;;;;2071057;28;21140;-50
2021/05/11 00:50:34;;;;;;;0.88;0.60;;;;;19.80;99787.00;;;;2070736;28;20211;-51
2021/05/11 00:51:34;;;;;;;0.70;0.60;;;;;19.80;99783.00;;;;2070294;28;20215;-51
2021/05/11 00:52:35;;;;;;;0.90;0.80;;;;;19.80;99778.00;;;;2062111;28;20208;-50
2021/05/11 00:53:37;;;;;;;0.77;0.60;;;;;19.80;99773.00;;;;2054453;28;20227;-51
2021/05/11 00:54:37;;;;;;;0.75;0.68;;;;;19.80;99768.00;;;;2070286;28;20222;-50
2021/05/11 00:55:38;;;;;;;0.77;0.70;;;;;19.80;99769.00;;;;2070916;28;20221;-50
2021/05/11 00:56:39;;;;;;;1.80;0.90;;;;;19.80;99766.00;;;;2070875;28;20219;-51
2021/05/11 00:57:39;;;;;;;0.73;0.67;;;;;19.80;99766.00;;;;2061946;28;20865;-50
2021/05/11 00:58:40;;;;;;;0.80;0.77;;;;;19.80;99773.00;;;;2062277;28;20207;-50
2021/05/11 00:59:41;;;;;;;1.23;0.90;;;;;19.80;99772.00;;;;2070326;28;20211;-50
2021/05/11 01:00:41;;;;;;;0.70;0.60;;;;;19.80;99773.00;;;;2070491;28;20458;-50
2021/05/11 01:01:41;;;;;;;1.27;0.80;;;;;19.80;99785.00;;;;2070160;28;20211;-50
2021/05/11 01:02:42;;;;;;;0.80;0.70;;;;;19.80;99778.00;;;;2070700;28;20207;-51
2021/05/11 01:03:42;;;;;;;1.30;0.80;;;;;19.80;99771.00;;;;2071137;28;20214;-50
2021/05/11 01:04:42;;;;;;;0.73;0.60;;;;;19.80;99767.00;;;;2079037;28;20589;-51
2021/05/11 01:05:43;;;;;;;0.70;0.57;;;;;19.80;99767.00;;;;2078961;28;20582;-51
2021/05/11 01:06:43;;;;;;;1.00;0.70;;;;;19.80;99765.00;;;;2078990;28;20213;-51
2021/05/11 01:07:46;;;;;;;0.70;0.60;;;;;19.80;99765.00;;;;2077748;28;20218;-50
2021/05/11 01:08:46;;;;;;;0.80;0.65;;;;;19.80;99769.00;;;;2070977;28;20648;-51
2021/05/11 01:09:47;;;;;;;0.80;0.60;;;;;19.80;99776.00;;;;2072409;28;20222;-51
2021/05/11 01:10:47;;;;;;;1.20;0.70;;;;;19.80;99780.00;;;;2073232;28;20259;-50
2021/05/11 01:11:47;;;;;;;0.77;0.63;;;;;19.80;99785.00;;;;2071596;28;20361;-51
2021/05/11 01:12:48;;;;;;;1.43;1.00;;;;;19.80;99785.00;;;;2072258;28;20229;-51
2021/05/11 01:13:48;;;;;;;0.97;0.70;;;;;19.80;99779.00;;;;2070654;28;20223;-50
2021/05/11 01:14:48;;;;;;;0.90;0.60;;;;;19.80;99773.00;;;;2071463;28;20659;-51
2021/05/11 01:15:51;;;;;;;1.10;0.73;;;;;19.80;99776.00;;;;2070989;28;20233;-50
2021/05/11 01:16:56;;;;;;;1.02;0.60;;;;;19.80;99775.00;;;;2071398;28;20226;-50
2021/05/11 01:18:07;;;;;;;1.05;0.95;;;;;19.80;99776.00;;;;2060015;28;20218;-51
2021/05/11 01:19:16;;;;;;;0.93;0.60;;;;;19.80;99776.00;;;;2078897;28;20280;-50
2021/05/11 01:20:26;;;;;;;0.77;0.70;;;;;19.80;99780.00;;;;2079663;28;20297;-51
2021/05/11 01:23:53;;;;;;;0.77;0.70;;;;;19.80;99778.00;;;;2076080;28;20851;-51
2021/05/11 01:24:54;;;;;;;0.80;0.77;;;;;19.80;99785.00;;;;2077644;28;20710;-51
2021/05/11 01:26:05;;;;;;;0.75;0.70;;;;;19.80;99785.00;;;;2078938;28;20221;-50
2021/05/11 01:28:47;;;;;;;0.70;0.60;;;;;19.80;99767.00;;;;2076546;28;20201;-51
2021/05/11 01:45:26;;;;;;;0.70;0.68;;;;;19.80;99775.00;;;;2070829;28;20215;-50
2021/05/11 01:50:23;;;;;;;0.98;0.70;;;;;19.80;99778.00;;;;2078615;28;20225;-51
2021/05/11 01:52:56;;;;;;;0.90;0.70;;;;;19.80;99780.00;;;;2078519;28;20217;-51
2021/05/11 01:54:16;;;;;;;0.80;0.80;;;;;19.80;99781.00;;;;2078909;28;20218;-50
2021/05/11 01:55:34;;;;;;;0.80;0.60;;;;;19.80;99772.00;;;;2070363;28;20246;-50
2021/05/11 02:23:07;;;;;;;1.00;0.70;;;;;19.80;99764.00;;;;2078508;28;20566;-50
2021/05/11 02:24:11;;;;;;;1.00;0.73;;;;;19.80;99767.00;;;;2078320;28;20210;-50
2021/05/11 02:25:13;;;;;;;0.77;0.70;;;;;19.80;99764.00;;;;2078318;28;20221;-50
2021/05/11 02:26:13;;;;;;;1.05;0.85;;;;;19.80;99764.00;;;;2079151;28;20306;-51
2021/05/11 02:27:14;;;;;;;0.77;0.70;;;;;19.80;99756.00;;;;2078682;28;20222;-51
2021/05/11 02:28:14;;;;;;;1.00;0.70;;;;;19.80;99758.00;;;;2078918;28;20206;-50
2021/05/11 02:29:14;;;;;;;0.90;0.80;;;;;19.80;99761.00;;;;2078276;28;20293;-50
2021/05/11 02:30:15;;;;;;;0.80;0.70;;;;;19.80;99759.00;;;;2078880;28;20615;-51
2021/05/11 02:31:15;;;;;;;0.90;0.67;;;;;19.80;99765.00;;;;2079076;28;20570;-50
2021/05/11 02:32:17;;;;;;;0.70;0.70;;;;;19.80;99770.00;;;;2079105;28;20604;-50
2021/05/11 02:33:17;;;;;;;0.80;0.70;;;;;19.80;99775.00;;;;2073288;28;20219;-50
2021/05/11 02:34:17;;;;;;;0.77;0.73;;;;;19.80;99777.00;;;;2070940;28;20719;-51
2021/05/11 02:35:18;;;;;;;1.00;0.60;;;;;19.80;99773.00;;;;2070834;28;20238;-50
2021/05/11 02:36:19;;;;;;;0.90;0.60;;;;;19.80;99761.00;;;;2069203;28;20223;-51
2021/05/11 02:37:19;;;;;;;0.80;0.63;;;;;19.80;99764.00;;;;2077770;28;20457;-50
2021/05/11 02:38:19;;;;;;;0.80;0.60;;;;;19.80;99764.00;;;;2078856;28;20597;-51
2021/05/11 02:39:20;;;;;;;0.80;0.73;;;;;19.80;99762.00;;;;2077035;28;20213;-50
2021/05/11 02:40:21;;;;;;;0.80;0.63;;;;;19.80;99760.00;;;;2074087;28;20273;-50
2021/05/11 02:41:21;;;;;;;0.93;0.65;;;;;19.80;99758.00;;;;2070180;28;20210;-50
2021/05/11 02:42:22;;;;;;;0.60;0.50;;;;;19.90;99754.00;;;;2074635;28;20622;-52
2021/05/11 02:43:44;;;;;;;0.73;0.60;;;;;19.80;99750.00;;;;2070945;28;20246;-51
2021/05/11 02:44:45;;;;;;;0.90;0.80;;;;;19.80;99759.00;;;;2074736;28;20214;-50
2021/05/11 02:45:46;;;;;;;1.17;0.60;;;;;19.80;99754.00;;;;2078801;28;20221;-50
2021/05/11 02:46:46;;;;;;;0.90;0.60;;;;;19.80;99758.00;;;;2079006;28;20265;-51
2021/05/11 02:47:50;;;;;;;0.80;0.70;;;;;19.80;99757.00;;;;2073010;28;20691;-51
2021/05/11 02:48:50;;;;;;;1.48;0.80;;;;;19.80;99755.00;;;;2070608;28;20210;-51
2021/05/11 02:49:51;;;;;;;0.70;0.70;;;;;19.80;99748.00;;;;2069880;28;20222;-51
2021/05/11 02:50:51;;;;;;;1.00;0.90;;;;;19.90;99760.00;;;;2070432;28;20871;-51
2021/05/11 02:51:51;;;;;;;0.80;0.70;;;;;19.80;99754.00;;;;2070612;28;20214;-50
2021/05/11 02:52:52;;;;;;;0.60;0.60;;;;;19.80;99760.00;;;;2070697;28;20312;-51
2021/05/11 02:53:52;;;;;;;0.70;0.70;;;;;19.80;99757.00;;;;2070884;28;20229;-50
2021/05/11 02:54:52;;;;;;;0.73;0.73;;;;;19.80;99760.00;;;;2070950;28;20215;-51
2021/05/11 02:55:53;;;;;;;1.10;0.73;;;;;19.80;99749.00;;;;2070618;28;20294;-52
2021/05/11 02:56:53;;;;;;;0.70;0.63;;;;;19.80;99755.00;;;;2070617;28;20211;-50
2021/05/11 02:57:54;;;;;;;0.83;0.70;;;;;19.80;99754.00;;;;2070719;28;20745;-50
2021/05/11 02:58:55;;;;;;;0.80;0.60;;;;;19.80;99755.00;;;;2070571;28;20218;-51
2021/05/11 02:59:55;;;;;;;0.80;0.80;;;;;19.80;99749.00;;;;2070000;28;20545;-50
2021/05/11 03:00:55;;;;;;;0.73;0.70;;;;;19.80;99743.00;;;;2073237;28;20221;-51
2021/05/11 03:01:56;;;;;;;0.73;0.60;;;;;19.80;99743.00;;;;2078235;28;20213;-51
2021/05/11 03:02:56;;;;;;;0.77;0.70;;;;;19.80;99747.00;;;;2078757;28;20620;-51
2021/05/11 03:03:56;;;;;;;0.80;0.70;;;;;19.80;99747.00;;;;2078647;28;20558;-51
2021/05/11 03:04:57;;;;;;;0.80;0.63;;;;;19.80;99744.00;;;;2078880;28;20213;-50
2021/05/11 03:05:57;;;;;;;1.17;0.60;;;;;19.80;99742.00;;;;2078506;28;20221;-50
2021/05/11 03:06:57;;;;;;;1.10;0.80;;;;;19.80;99748.00;;;;2078042;28;20225;-50
2021/05/11 03:07:58;;;;;;;1.00;0.70;;;;;19.80;99745.00;;;;2070618;28;20217;-50
2021/05/11 03:08:58;;;;;;;0.70;0.60;;;;;19.80;99746.00;;;;2070510;28;20679;-51
2021/05/11 03:09:59;;;;;;;0.73;0.63;;;;;19.80;99746.00;;;;2070298;28;20253;-50
2021/05/11 03:11:00;;;;;;;0.60;0.60;;;;;19.80;99748.00;;;;2072205;28;20929;-50
2021/05/11 03:12:00;;;;;;;0.80;0.63;;;;;19.80;99743.00;;;;2074257;28;20219;-51
2021/05/11 03:13:00;;;;;;;0.70;0.60;;;;;19.80;99742.00;;;;2072311;28;20214;-50
2021/05/11 03:14:01;;;;;;;1.00;0.90;;;;;19.80;99742.00;;;;2070730;28;20233;-51
2021/05/11 03:15:01;;;;;;;1.20;0.60;;;;;19.80;99744.00;;;;2069557;28;20257;-50
2021/05/11 03:16:02;;;;;;;0.60;0.60;;;;;19.80;99750.00;;;;2069921;28;20683;-51
2021/05/11 03:17:02;;;;;;;1.00;0.80;;;;;19.80;99744.00;;;;2070219;28;20272;-50
2021/05/11 03:18:03;;;;;;;0.70;0.70;;;;;19.80;99745.00;;;;2078540;28;20544;-50
2021/05/11 03:19:03;;;;;;;0.80;0.70;;;;;19.80;99741.00;;;;2078397;28;20218;-50
2021/05/11 03:20:05;;;;;;;1.00;0.90;;;;;19.80;99745.00;;;;2077852;28;20224;-50
2021/05/11 03:21:05;;;;;;;0.70;0.65;;;;;19.80;99745.00;;;;2078400;28;20240;-51
2021/05/11 03:22:07;;;;;;;0.73;0.70;;;;;19.80;99745.00;;;;2078636;28;20214;-50
2021/05/11 03:23:08;;;;;;;0.82;0.70;;;;;19.80;99750.00;;;;2078678;28;20284;-51
2021/05/11 03:24:10;;;;;;;0.80;0.77;;;;;19.80;99739.00;;;;2078445;28;20916;-51
2021/05/11 03:25:10;;;;;;;0.80;0.80;;;;;19.80;99745.00;;;;2078708;28;20222;-50
2021/05/11 03:26:11;;;;;;;1.17;0.90;;;;;19.80;99741.00;;;;2077634;28;20270;-50
2021/05/11 03:27:12;;;;;;;0.80;0.70;;;;;19.80;99739.00;;;;2077857;28;20225;-50
2021/05/11 03:28:12;;;;;;;0.80;0.65;;;;;19.80;99746.00;;;;2076335;28;20270;-50
2021/05/11 03:29:13;;;;;;;0.90;0.80;;;;;19.80;99755.00;;;;2069137;28;20215;-51
2021/05/11 03:30:13;;;;;;;0.77;0.70;;;;;19.80;99743.00;;;;2069896;28;20230;-51
2021/05/11 03:31:14;;;;;;;0.73;0.70;;;;;19.80;99735.00;;;;2069521;28;20306;-51
2021/05/11 03:32:15;;;;;;;0.80;0.80;;;;;19.80;99737.00;;;;2068349;28;20217;-54
2021/05/11 03:33:15;;;;;;;0.70;0.70;;;;;19.80;99751.00;;;;2069243;28;20409;-52
2021/05/11 03:34:15;;;;;;;0.87;0.60;;;;;19.80;99736.00;;;;2069721;28;20231;-51
2021/05/11 03:35:16;;;;;;;1.27;0.90;;;;;19.80;99732.00;;;;2070066;28;20729;-51
2021/05/11 03:36:16;;;;;;;0.83;0.70;;;;;19.80;99740.00;;;;2069516;28;20233;-50
2021/05/11 03:37:16;;;;;;;1.07;0.70;;;;;19.80;99742.00;;;;2069977;28;20849;-51
2021/05/11 03:38:17;;;;;;;0.80;0.60;;;;;19.80;99738.00;;;;2069642;28;20623;-50
2021/05/11 03:39:17;;;;;;;1.57;0.60;;;;;19.80;99742.00;;;;2069198;28;20669;-50
2021/05/11 03:40:17;;;;;;;0.80;0.70;;;;;19.80;99739.00;;;;2073675;28;20566;-50
2021/05/11 03:41:21;;;;;;;0.80;0.77;;;;;19.80;99749.00;;;;2073181;28;20216;-50
2021/05/11 03:42:26;;;;;;;0.88;0.75;;;;;19.80;99743.00;;;;2073386;28;20218;-50
2021/05/11 03:43:32;;;;;;;1.55;0.70;;;;;19.80;99738.00;;;;2072292;28;20211;-50
2021/05/11 03:44:34;;;;;;;2.80;0.70;;;;;19.80;99742.00;;;;2077990;28;20292;-51
2021/05/11 03:45:39;;;;;;;0.80;0.77;;;;;19.80;99741.00;;;;2069589;28;20241;-50
2021/05/11 03:46:40;;;;;;;0.80;0.70;;;;;19.80;99742.00;;;;2069608;28;20214;-50
2021/05/11 03:47:46;;;;;;;0.80;0.60;;;;;19.80;99749.00;;;;2069801;28;20223;-51
2021/05/11 03:48:46;;;;;;;0.93;0.75;;;;;19.80;99750.00;;;;2069659;28;20465;-50
2021/05/11 03:49:47;;;;;;;0.90;0.80;;;;;19.80;99752.00;;;;2069264;28;20217;-50
2021/05/11 03:50:47;;;;;;;0.97;0.77;;;;;19.80;99746.00;;;;2070052;28;20206;-50
2021/05/11 03:51:48;;;;;;;0.70;0.70;;;;;19.80;99748.00;;;;2065339;28;21250;-54
2021/05/11 03:52:48;;;;;;;1.00;0.70;;;;;19.80;99740.00;;;;2070267;28;20219;-51
2021/05/11 03:53:49;;;;;;;0.80;0.80;;;;;19.80;99745.00;;;;2070388;28;20477;-52
2021/05/11 03:54:49;;;;;;;1.00;0.90;;;;;19.80;99741.00;;;;2069866;28;20218;-51
2021/05/11 03:55:51;;;;;;;0.90;0.70;;;;;19.80;99744.00;;;;2066669;28;20294;-50
2021/05/11 03:56:51;;;;;;;1.08;0.80;;;;;19.80;99736.00;;;;2068354;28;20219;-51
2021/05/11 03:57:52;;;;;;;1.00;0.80;;;;;19.80;99730.00;;;;2069007;28;20214;-51
2021/05/11 03:58:52;;;;;;;1.00;0.90;;;;;19.80;99722.00;;;;2069754;28;20230;-50
2021/05/11 03:59:53;;;;;;;1.20;0.70;;;;;19.80;99733.00;;;;2068819;28;20225;-51
2021/05/11 04:00:53;;;;;;;0.83;0.80;;;;;19.80;99740.00;;;;2069760;28;20462;-51
2021/05/11 04:01:53;;;;;;;1.07;0.70;;;;;19.80;99740.00;;;;2069675;28;20223;-51
2021/05/11 04:02:54;;;;;;;0.93;0.80;;;;;19.80;99750.00;;;;2070046;28;20207;-50
2021/05/11 04:03:54;;;;;;;0.80;0.80;;;;;19.80;99759.00;;;;2069573;28;20691;-51
2021/05/11 04:04:54;;;;;;;1.00;0.80;;;;;19.80;99759.00;;;;2069650;28;20738;-52
2021/05/11 04:05:56;;;;;;;1.47;0.83;;;;;19.80;99752.00;;;;2069698;28;20710;-51
2021/05/11 04:06:56;;;;;;;0.93;0.82;;;;;19.80;99748.00;;;;2069613;28;20595;-51
2021/05/11 04:07:59;;;;;;;1.20;0.90;;;;;19.80;99749.00;;;;2069611;28;20222;-51
2021/05/11 04:09:08;;;;;;;0.82;0.82;;;;;19.80;99745.00;;;;2071712;28;20695;-51
2021/05/11 04:10:17;;;;;;;1.25;0.70;;;;;19.80;99743.00;;;;2072542;28;20252;-51
2021/05/11 04:11:38;;;;;;;1.42;0.70;;;;;19.80;99746.00;;;;2072751;28;20683;-51
2021/05/11 04:17:09;;;;;;;1.10;1.00;;;;;19.80;99751.00;;;;2077913;28;20868;-51
2021/05/11 04:18:09;;;;;;;1.00;0.87;;;;;19.80;99739.00;;;;2077927;28;20220;-51
2021/05/11 04:19:10;;;;;;;0.90;0.80;;;;;19.80;99744.00;;;;2078001;28;20267;-51
2021/05/11 04:20:11;;;;;;;0.80;0.80;;;;;19.80;99746.00;;;;2078062;28;20245;-51
2021/05/11 04:21:11;;;;;;;0.80;0.70;;;;;19.80;99736.00;;;;2079130;28;20216;-51
2021/05/11 04:22:12;;;;;;;0.80;0.77;;;;;19.80;99723.00;;;;2079296;28;20270;-51
2021/05/11 04:23:12;;;;;;;0.70;0.60;;;;;19.80;99720.00;;;;2079719;28;20283;-51
2021/05/11 04:24:12;;;;;;;0.80;0.60;;;;;19.80;99718.00;;;;2079122;28;20214;-51
2021/05/11 04:25:13;;;;;;;0.90;0.83;;;;;19.70;99719.00;;;;2079522;28;20315;-51
2021/05/11 04:26:14;;;;;;;1.00;0.90;;;;;19.80;99718.00;;;;2079616;28;20271;-51
2021/05/11 04:27:14;;;;;;;1.07;0.70;;;;;19.80;99709.00;;;;2079292;28;20702;-51
2021/05/11 04:28:15;;;;;;;1.07;0.97;;;;;19.80;99721.00;;;;2079250;28;20213;-51
2021/05/11 04:29:16;;;;;;;1.15;1.00;;;;;19.80;99715.00;;;;2078580;28;20242;-52
2021/05/11 04:30:18;;;;;;;0.90;0.80;;;;;19.80;99713.00;;;;2077645;28;20268;-51
2021/05/11 04:31:19;;;;;;;0.75;0.75;;;;;19.80;99716.00;;;;2079008;28;20232;-51
2021/05/11 04:32:19;;;;;;;0.80;0.77;;;;;19.80;99672.00;;;;2079381;28;20222;-51
2021/05/11 04:33:20;;;;;;;0.80;0.70;;;;;19.80;99721.00;;;;2079417;28;20692;-51
2021/05/11 04:34:20;;;;;;;0.80;0.73;;;;;19.80;99727.00;;;;2079292;28;20625;-51
2021/05/11 04:35:20;;;;;;;0.90;0.70;;;;;19.80;99727.00;;;;2079251;28;20209;-51
2021/05/11 04:36:21;;;;;;;0.80;0.80;;;;;19.80;99733.00;;;;2078113;28;20222;-51
2021/05/11 04:37:21;;;;;;;1.70;1.00;;;;;19.80;99725.00;;;;2071124;28;20231;-51
2021/05/11 04:38:22;;;;;;;0.80;0.70;;;;;19.80;99727.00;;;;2071278;28;20245;-51
2021/05/11 04:39:22;;;;;;;0.80;0.70;;;;;19.70;99738.00;;;;2070610;28;20233;-51
2021/05/11 04:40:23;;;;;;;0.80;0.73;;;;;19.80;99725.00;;;;2075730;28;20461;-51
2021/05/11 04:41:23;;;;;;;0.90;0.80;;;;;19.80;99744.00;;;;2073769;28;20220;-51
2021/05/11 04:42:23;;;;;;;0.90;0.70;;;;;19.80;99750.00;;;;2073199;28;20211;-51
2021/05/11 04:43:25;;;;;;;0.70;0.70;;;;;19.80;99745.00;;;;2070935;28;20223;-51
2021/05/11 04:44:30;;;;;;;0.82;0.60;;;;;19.80;99744.00;;;;2070493;28;20218;-51
2021/05/11 04:45:33;;;;;;;1.63;1.05;;;;;19.80;99754.00;;;;2075234;28;20210;-52
2021/05/11 04:46:47;;;;;;;1.10;0.77;;;;;19.80;99751.00;;;;2079168;28;20244;-51
2021/05/11 04:47:51;;;;;;;0.90;0.80;;;;;19.80;99709.00;;;;2079162;28;20289;-51
2021/05/11 04:48:51;;;;;;;0.80;0.70;;;;;19.80;99757.00;;;;2079477;28;20216;-51
2021/05/11 04:49:52;;;;;;;0.80;0.60;;;;;19.80;99755.00;;;;2078799;28;20206;-51
2021/05/11 04:50:52;;;;;;;0.70;0.60;;;;;19.80;99754.00;;;;2079787;28;20722;-51
2021/05/11 04:51:52;;;;;;;0.80;0.73;;;;;19.80;99740.00;;;;2079518;28;20708;-51
2021/05/11 04:52:53;;;;;;;0.90;0.80;;;;;19.80;99743.00;;;;2079573;28;20280;-51
2021/05/11 04:53:53;;;;;;;1.13;1.00;;;;;19.80;99736.00;;;;2079270;28;20236;-51
2021/05/11 04:54:54;;;;;;;0.80;0.70;;;;;19.80;99733.00;;;;2078875;28;20210;-51
2021/05/11 04:55:54;;;;;;;0.80;0.60;;;;;19.80;99734.00;;;;2078987;28;20229;-51
2021/05/11 04:56:54;;;;;;;0.70;0.70;;;;;19.80;99731.00;;;;2076260;28;20229;-51
2021/05/11 04:57:55;;;;;;;1.00;0.90;;;;;19.80;99742.00;;;;2078556;28;20237;-51
2021/05/11 04:58:55;;;;;;;0.70;0.70;;;;;19.80;99732.00;;;;2079240;28;20214;-51
2021/05/11 04:59:56;;;;;;;1.07;1.00;;;;;19.80;99732.00;;;;2078321;28;20241;-51
2021/05/11 05:01:01;;;;;;;0.80;0.77;;;;;19.90;99739.00;;;;2079030;28;20206;-51
2021/05/11 05:02:03;;;;;;;1.40;0.98;;;;;19.80;99742.00;;;;2079213;28;20218;-51
2021/05/11 05:03:07;;;;;;;0.95;0.85;;;;;19.80;99731.00;;;;2079061;28;20220;-51
2021/05/11 05:04:10;;;;;;;0.80;0.80;;;;;19.90;99735.00;;;;2078909;28;20272;-51
2021/05/11 05:05:12;;;;;;;0.90;0.75;;;;;19.80;99733.00;;;;2079250;28;20209;-51
2021/05/11 05:06:12;;;;;;;0.95;0.80;;;;;19.80;99734.00;;;;2078809;28;20293;-51
2021/05/11 05:07:12;;;;;;;0.80;0.70;;;;;19.80;99730.00;;;;2079333;28;20229;-51
2021/05/11 05:08:13;;;;;;;1.00;0.80;;;;;19.80;99729.00;;;;2079560;28;20246;-51
2021/05/11 05:09:13;;;;;;;1.03;0.70;;;;;19.90;99736.00;;;;2079611;28;20650;-51
2021/05/11 05:10:13;;;;;;;1.30;1.20;;;;;19.90;99739.00;;;;2075759;28;20686;-51
2021/05/11 05:11:17;;;;;;;0.90;0.80;;;;;19.90;99738.00;;;;2075015;28;20259;-51
2021/05/11 05:12:17;;;;;;;0.93;0.85;;;;;19.80;99734.00;;;;2077169;28;20218;-51
2021/05/11 05:13:21;;;;;;;0.80;0.70;;;;;19.80;99735.00;;;;2071277;28;20257;-51
2021/05/11 05:14:21;;;;;;;0.90;0.80;;;;;19.80;99734.00;;;;2071412;28;20219;-51
2021/05/11 05:15:21;;;;;;;0.93;0.70;;;;;19.80;99738.00;;;;2071494;28;20272;-51
2021/05/11 05:16:22;;;;;;;1.00;0.90;;;;;19.80;99736.00;;;;2071327;28;20251;-51
2021/05/11 05:17:22;;;;;;;1.00;0.87;;;;;19.80;99733.00;;;;2071103;28;20237;-51
2021/05/11 05:18:23;;;;;;;1.00;0.70;;;;;19.80;99740.00;;;;2071177;28;20302;-51
2021/05/11 05:19:23;;;;;;;1.13;0.90;;;;;19.80;99737.00;;;;2070957;28;20218;-51
2021/05/11 05:20:23;;;;;;;1.47;1.00;;;;;19.80;99730.00;;;;2071209;28;20578;-51
2021/05/11 05:21:24;;;;;;;0.90;0.80;;;;;19.80;99740.00;;;;2071245;28;20579;-51
2021/05/11 05:22:24;;;;;;;0.90;0.80;;;;;19.80;99729.00;;;;2071443;28;20619;-51
2021/05/11 05:23:33;;;;;;;0.90;0.80;;;;;19.80;99737.00;;;;2071387;28;20774;-51
2021/05/11 05:24:36;;;;;;;1.00;0.80;;;;;19.80;99741.00;;;;2071174;28;20843;-51
2021/05/11 05:25:36;;;;;;;0.95;0.82;;;;;19.90;99729.00;;;;2075729;28;20213;-51
2021/05/11 05:26:37;;;;;;;1.30;1.10;;;;;19.90;99738.00;;;;2079544;28;20251;-51
2021/05/11 05:27:59;;;;;;;0.90;0.77;;;;;19.80;99741.00;;;;2079102;28;20213;-51
2021/05/11 05:29:02;;;;;;;0.70;0.70;;;;;19.80;99731.00;;;;2079580;28;20256;-51
2021/05/11 05:30:03;;;;;;;1.35;0.90;;;;;19.80;99729.00;;;;2078767;28;20217;-52
2021/05/11 05:31:04;;;;;;;1.00;0.88;;;;;19.80;99743.00;;;;2074761;28;20211;-51
2021/05/11 05:32:04;;;;;;;1.10;0.67;;;;;19.80;99729.00;;;;2079477;28;20210;-51
2021/05/11 05:33:04;;;;;;;1.10;1.00;;;;;19.80;99733.00;;;;2079415;28;20218;-51
2021/05/11 05:34:05;;;;;;;1.37;0.90;;;;;19.80;99737.00;;;;2079433;28;20210;-51
2021/05/11 05:35:05;;;;;;;1.70;0.90;;;;;19.80;99736.00;;;;2079452;28;20214;-52
2021/05/11 05:36:06;;;;;;;1.00;0.90;;;;;19.80;99728.00;;;;2079394;28;20217;-51
2021/05/11 05:37:07;;;;;;;1.00;0.70;;;;;19.80;99722.00;;;;2079122;28;20713;-52
2021/05/11 05:38:07;;;;;;;0.90;0.80;;;;;19.90;99726.00;;;;2079218;28;20260;-51
2021/05/11 05:39:08;;;;;;;1.07;0.80;;;;;19.80;99738.00;;;;2079452;28;20291;-51
2021/05/11 05:40:10;;;;;;;1.00;0.90;;;;;19.80;99715.00;;;;2075594;28;20729;-51
2021/05/11 05:41:20;;;;;;;0.75;0.65;;;;;19.80;99715.00;;;;2072919;28;20206;-51
2021/05/11 05:42:21;;;;;;;1.10;1.00;;;;;19.80;99718.00;;;;2072542;28;20286;-51
2021/05/11 05:43:21;;;;;;;1.23;0.80;;;;;19.90;99717.00;;;;2070926;28;20233;-52
2021/05/11 05:44:21;;;;;;;1.00;0.90;;;;;19.80;99719.00;;;;2071135;28;20215;-51
2021/05/11 05:45:22;;;;;;;1.10;1.00;;;;;19.80;99714.00;;;;2071259;28;20252;-51
2021/05/11 05:46:22;;;;;;;1.10;1.00;;;;;19.80;99703.00;;;;2071220;28;20214;-51
2021/05/11 05:47:22;;;;;;;1.20;1.10;;;;;19.80;99713.00;;;;2071026;28;20265;-51
2021/05/11 05:48:23;;;;;;;1.30;1.20;;;;;19.90;99708.00;;;;2071216;28;20251;-51
2021/05/11 05:49:25;;;;;;;0.90;0.90;;;;;19.90;99712.00;;;;2069976;28;20225;-51
2021/05/11 05:50:28;;;;;;;0.93;0.80;;;;;19.90;99709.00;;;;2070619;28;20214;-51
2021/05/11 05:51:29;;;;;;;0.80;0.80;;;;;19.90;99696.00;;;;2071052;28;20226;-51
2021/05/11 05:52:37;;;;;;;1.08;0.90;;;;;19.90;99698.00;;;;2070858;28;20238;-51
2021/05/11 05:53:41;;;;;;;1.17;1.08;;;;;19.80;99697.00;;;;2075037;28;20202;-51
2021/05/11 05:54:44;;;;;;;1.20;1.10;;;;;19.90;99691.00;;;;2079124;28;20210;-51
2021/05/11 05:55:44;;;;;;;0.93;0.82;;;;;19.90;99692.00;;;;2078441;28;20629;-51
2021/05/11 05:56:44;;;;;;;0.90;0.80;;;;;19.90;99693.00;;;;2079023;28;20209;-51
2021/05/11 05:57:45;;;;;;;0.87;0.80;;;;;19.90;99688.00;;;;2079156;28;20299;-51
2021/05/11 05:58:45;;;;;;;1.10;1.00;;;;;19.90;99685.00;;;;2079058;28;20229;-51
2021/05/11 05:59:45;;;;;;;1.27;1.00;;;;;19.90;99687.00;;;;2078540;28;20242;-51
2021/05/11 06:00:47;;;;;;;0.83;0.80;;;;;19.90;99691.00;;;;2078603;28;20218;-51
2021/05/11 06:01:48;;;;;;;1.13;0.98;;;;;19.90;99691.00;;;;2078018;28;20225;-51
2021/05/11 06:02:51;;;;;;;1.30;1.20;;;;;19.90;99687.00;;;;2079225;28;20819;-51
2021/05/11 06:04:09;;;;;;;1.20;1.10;;;;;19.90;99700.00;;;;2078656;28;20229;-51